createdAt,value
2022-08-31T00:01:20.758Z,29.80
2022-08-31T00:04:03.436Z,30.30
2022-08-31T00:06:34.917Z,31.30
2022-08-31T00:09:02.166Z,33.00
2022-08-31T00:11:30.494Z,32.70
2022-08-31T00:13:58.830Z,33.30
2022-08-31T00:16:26.406Z,34.30
2022-08-31T00:18:53.530Z,33.20
2022-08-31T00:21:21.746Z,32.80
2022-08-31T00:23:48.677Z,31.30
2022-08-31T00:26:15.795Z,31.90
2022-08-31T00:28:42.527Z,32.10
2022-08-31T00:31:10.846Z,31.90
2022-08-31T00:33:37.890Z,30.60
2022-08-31T00:36:09.265Z,30.00
2022-08-31T00:38:35.831Z,29.70
2022-08-31T00:41:02.490Z,29.60
2022-08-31T00:43:36.674Z,30.00
2022-08-31T00:46:03.724Z,30.10
2022-08-31T00:48:30.569Z,30.00
2022-08-31T00:50:57.708Z,30.30
2022-08-31T00:53:24.629Z,30.00
2022-08-31T00:55:51.432Z,30.00
2022-08-31T00:58:18.207Z,30.00
2022-08-31T01:00:47.744Z,30.00
2022-08-31T01:03:15.075Z,30.00
2022-08-31T01:05:42.150Z,30.00
2022-08-31T01:08:08.810Z,30.00
2022-08-31T01:10:38.404Z,30.00
2022-08-31T01:13:05.683Z,30.00
2022-08-31T01:15:33.110Z,30.90
2022-08-31T01:18:01.457Z,32.30
2022-08-31T01:20:31.654Z,31.80
2022-08-31T01:23:12.721Z,31.30
2022-08-31T01:25:40.420Z,31.40
2022-08-31T01:28:08.200Z,32.10
2022-08-31T01:30:35.173Z,32.80
2022-08-31T01:33:02.053Z,32.40
2022-08-31T01:35:28.819Z,33.30
2022-08-31T01:37:56.063Z,33.80
2022-08-31T01:40:46.645Z,32.00
2022-08-31T01:43:13.284Z,31.80
2022-08-31T01:45:39.920Z,31.90
2022-08-31T01:48:06.488Z,32.80
2022-08-31T01:50:33.415Z,33.10
2022-08-31T01:52:59.985Z,32.10
2022-08-31T01:55:26.564Z,31.60
2022-08-31T01:57:53.162Z,32.40
2022-08-31T02:00:20.147Z,32.70
2022-08-31T02:02:46.777Z,32.60
2022-08-31T02:05:14.493Z,33.20
2022-08-31T02:07:41.549Z,33.70
2022-08-31T02:10:08.476Z,35.50
2022-08-31T02:12:35.087Z,34.00
2022-08-31T02:15:01.748Z,35.40
2022-08-31T02:17:28.395Z,35.50
2022-08-31T02:19:55.027Z,33.90
2022-08-31T02:22:21.602Z,35.40
2022-08-31T02:24:48.210Z,35.30
2022-08-31T02:27:14.775Z,35.30
2022-08-31T02:29:41.377Z,35.40
2022-08-31T02:32:08.022Z,35.30
2022-08-31T02:34:44.951Z,35.40
2022-08-31T02:37:11.538Z,35.30
2022-08-31T02:39:38.133Z,35.30
2022-08-31T02:42:05.367Z,35.30
2022-08-31T02:44:34.878Z,35.30
2022-08-31T02:47:01.455Z,35.20
2022-08-31T02:49:28.015Z,35.20
2022-08-31T02:51:54.562Z,36.50
2022-08-31T02:54:21.274Z,36.80
2022-08-31T02:56:47.885Z,38.80
2022-08-31T02:59:14.464Z,39.20
2022-08-31T03:01:42.452Z,41.00
2022-08-31T03:04:09.207Z,41.00
2022-08-31T03:06:36.077Z,42.50
2022-08-31T03:09:02.681Z,43.40
2022-08-31T03:11:29.488Z,43.90
2022-08-31T03:13:58.649Z,44.10
2022-08-31T03:16:25.618Z,44.40
2022-08-31T03:18:52.342Z,44.50
2022-08-31T03:21:18.879Z,44.40
2022-08-31T03:23:45.562Z,43.70
2022-08-31T03:26:12.218Z,44.00
2022-08-31T03:28:39.174Z,45.60
2022-08-31T03:31:08.593Z,46.10
2022-08-31T03:33:35.361Z,46.10
2022-08-31T03:36:04.624Z,46.10
2022-08-31T03:38:31.771Z,46.10
2022-08-31T03:40:58.848Z,46.10
2022-08-31T03:43:25.540Z,47.50
2022-08-31T03:45:52.989Z,47.40
2022-08-31T03:48:19.623Z,48.10
2022-08-31T03:50:46.312Z,47.80
2022-08-31T03:53:12.872Z,49.10
2022-08-31T03:55:40.425Z,49.20
2022-08-31T03:58:07.270Z,51.10
2022-08-31T04:00:34.273Z,50.60
2022-08-31T04:03:01.557Z,51.30
2022-08-31T04:05:29.350Z,51.40
2022-08-31T04:07:56.001Z,52.60
2022-08-31T04:10:23.068Z,53.70
2022-08-31T04:12:50.093Z,55.80
2022-08-31T04:15:17.598Z,54.70
2022-08-31T04:17:45.142Z,55.20
2022-08-31T04:20:11.758Z,56.60
2022-08-31T04:22:38.364Z,56.50
2022-08-31T04:25:05.248Z,56.50
2022-08-31T04:27:32.027Z,56.50
2022-08-31T04:29:58.670Z,56.50
2022-08-31T04:32:25.313Z,56.40
2022-08-31T04:34:56.160Z,56.60
2022-08-31T04:37:23.341Z,57.70
2022-08-31T04:39:51.224Z,59.00
2022-08-31T04:42:19.168Z,59.20
2022-08-31T04:44:45.866Z,58.40
2022-08-31T04:47:12.441Z,56.30
2022-08-31T04:49:39.205Z,56.30
2022-08-31T04:52:06.699Z,56.40
2022-08-31T04:54:33.298Z,55.20
2022-08-31T04:56:59.887Z,54.20
2022-08-31T04:59:27.483Z,53.20
2022-08-31T05:01:54.736Z,51.90
2022-08-31T05:04:24.536Z,52.20
2022-08-31T05:06:51.660Z,50.70
2022-08-31T05:09:20.149Z,48.30
2022-08-31T05:11:46.770Z,45.60
2022-08-31T05:14:13.331Z,46.50
2022-08-31T05:16:40.728Z,45.60
2022-08-31T05:19:07.340Z,45.70
2022-08-31T05:21:35.248Z,45.70
2022-08-31T05:24:03.744Z,45.90
2022-08-31T05:26:31.780Z,44.90
2022-08-31T05:28:59.375Z,42.50
2022-08-31T05:31:29.027Z,40.40
2022-08-31T05:33:56.257Z,40.40
2022-08-31T05:36:22.858Z,38.90
2022-08-31T05:38:50.037Z,37.30
2022-08-31T05:41:16.688Z,37.90
2022-08-31T05:43:43.315Z,37.30
2022-08-31T05:46:10.998Z,34.90
2022-08-31T05:48:38.088Z,35.30
2022-08-31T05:51:05.867Z,36.30
2022-08-31T05:53:32.921Z,35.10
2022-08-31T05:56:04.203Z,33.60
2022-08-31T05:58:30.857Z,35.20
2022-08-31T06:00:57.560Z,35.30
2022-08-31T06:03:24.250Z,32.30
2022-08-31T06:05:51.246Z,32.00
2022-08-31T06:08:18.577Z,32.30
2022-08-31T06:10:53.629Z,31.30
2022-08-31T06:13:21.024Z,29.30
2022-08-31T06:15:47.790Z,28.90
2022-08-31T06:18:14.442Z,26.80
2022-08-31T06:20:41.118Z,25.70
2022-08-31T06:23:08.497Z,25.80
2022-08-31T06:25:36.701Z,25.80
2022-08-31T06:28:06.622Z,25.90
2022-08-31T06:30:47.777Z,21.40
2022-08-31T06:33:21.433Z,21.50
2022-08-31T06:35:48.275Z,22.20
2022-08-31T06:38:14.864Z,22.40
2022-08-31T06:40:41.515Z,21.40
2022-08-31T06:43:08.142Z,21.00
2022-08-31T06:45:34.715Z,18.70
2022-08-31T06:48:01.581Z,20.90
2022-08-31T06:50:28.175Z,20.20
2022-08-31T06:52:55.661Z,20.80
2022-08-31T06:55:22.868Z,19.80
2022-08-31T06:57:49.471Z,18.60
2022-08-31T07:00:16.029Z,17.20
2022-08-31T07:02:42.765Z,13.60
2022-08-31T07:05:12.597Z,12.70
2022-08-31T07:07:42.311Z,12.70
2022-08-31T07:10:10.461Z,12.80
2022-08-31T07:12:37.031Z,12.10
2022-08-31T07:15:03.918Z,8.40
2022-08-31T07:17:32.100Z,5.00
2022-08-31T07:19:58.693Z,3.60
2022-08-31T07:22:25.332Z,3.10
2022-08-31T07:24:52.035Z,2.40
2022-08-31T07:27:18.669Z,1.00
2022-08-31T07:29:45.264Z,1.00
2022-08-31T07:32:13.566Z,1.00
2022-08-31T07:34:40.398Z,1.00
2022-08-31T07:37:26.695Z,1.00
2022-08-31T07:40:12.411Z,1.00
2022-08-31T07:42:40.370Z,1.40
2022-08-31T07:45:10.196Z,1.00
2022-08-31T07:47:46.050Z,1.00
2022-08-31T07:50:13.756Z,2.80
2022-08-31T07:52:47.423Z,2.60
2022-08-31T07:55:15.563Z,3.60
2022-08-31T07:57:45.563Z,3.80
2022-08-31T08:00:14.638Z,3.20
2022-08-31T08:02:46.174Z,3.80
2022-08-31T08:05:26.956Z,1.40
2022-08-31T08:07:55.691Z,3.40
2022-08-31T08:10:24.174Z,3.80
2022-08-31T08:12:57.293Z,2.00
2022-08-31T08:15:24.387Z,2.20
2022-08-31T08:17:51.415Z,1.00
2022-08-31T08:20:18.785Z,1.00
2022-08-31T08:23:00.835Z,1.20
2022-08-31T08:25:27.584Z,1.00
2022-08-31T08:27:54.796Z,1.00
2022-08-31T08:30:21.688Z,1.00
2022-08-31T08:32:48.699Z,1.00
2022-08-31T08:35:16.500Z,1.00
2022-08-31T08:37:57.719Z,1.00
2022-08-31T08:40:31.139Z,1.00
2022-08-31T08:42:59.990Z,1.00
2022-08-31T08:45:26.821Z,1.00
2022-08-31T08:47:56.999Z,1.00
2022-08-31T08:50:27.664Z,1.00
2022-08-31T08:52:56.395Z,1.00
2022-08-31T08:55:26.959Z,1.00
2022-08-31T08:57:56.070Z,1.00
2022-08-31T09:00:25.028Z,1.00
2022-08-31T09:03:03.420Z,1.00
2022-08-31T09:05:47.434Z,1.00
2022-08-31T09:08:31.156Z,1.00
2022-08-31T09:11:17.798Z,1.00
2022-08-31T09:13:53.088Z,1.00
2022-08-31T09:16:40.796Z,1.00
2022-08-31T09:19:12.741Z,1.00
2022-08-31T09:21:41.753Z,1.00
2022-08-31T09:24:10.111Z,1.00
2022-08-31T09:26:50.896Z,1.00
2022-08-31T09:29:28.493Z,1.00
2022-08-31T09:32:06.181Z,1.00
2022-08-31T09:34:37.914Z,1.00
2022-08-31T09:37:11.573Z,1.00
2022-08-31T09:39:38.321Z,1.00
2022-08-31T09:42:14.586Z,1.00
2022-08-31T09:44:42.120Z,1.00
2022-08-31T09:47:44.540Z,1.00
2022-08-31T09:50:23.466Z,1.00
2022-08-31T09:53:08.925Z,1.00
2022-08-31T09:55:35.554Z,1.00
2022-08-31T09:58:04.318Z,1.00
2022-08-31T10:00:45.165Z,1.00
2022-08-31T10:03:20.506Z,1.00
2022-08-31T10:05:49.937Z,1.00
2022-08-31T10:08:28.142Z,1.00
2022-08-31T10:10:58.534Z,1.00
2022-08-31T10:13:34.578Z,1.00
2022-08-31T10:16:03.064Z,1.00
2022-08-31T10:18:39.397Z,1.00
2022-08-31T10:21:08.947Z,1.00
2022-08-31T10:23:41.914Z,1.00
2022-08-31T10:26:16.212Z,1.00
2022-08-31T10:28:51.605Z,1.00
2022-08-31T10:31:23.788Z,1.00
2022-08-31T10:34:09.042Z,1.00
2022-08-31T10:36:37.651Z,1.00
2022-08-31T10:39:10.575Z,1.00
2022-08-31T10:41:40.887Z,1.00
2022-08-31T10:44:17.735Z,1.00
2022-08-31T10:46:45.055Z,1.00
2022-08-31T10:49:11.639Z,1.00
2022-08-31T10:51:43.607Z,1.00
2022-08-31T10:54:29.139Z,1.00
2022-08-31T10:56:59.245Z,1.00
2022-08-31T10:59:33.564Z,1.00
2022-08-31T11:02:18.837Z,1.00
2022-08-31T11:04:48.823Z,1.00
2022-08-31T11:07:18.269Z,1.00
2022-08-31T11:09:56.233Z,1.00
2022-08-31T11:12:26.433Z,1.00
2022-08-31T11:15:09.659Z,1.00
2022-08-31T11:17:42.238Z,1.00
2022-08-31T11:20:25.047Z,1.00
2022-08-31T11:23:05.599Z,1.00
2022-08-31T11:25:47.588Z,1.00
2022-08-31T11:28:34.218Z,1.00
2022-08-31T11:31:14.571Z,1.00
2022-08-31T11:34:06.043Z,1.00
2022-08-31T11:36:50.830Z,1.00
2022-08-31T11:39:26.656Z,1.00
2022-08-31T11:41:54.202Z,1.00
2022-08-31T11:44:30.785Z,1.00
2022-08-31T11:47:09.628Z,1.00
2022-08-31T11:49:38.877Z,1.00
2022-08-31T11:52:12.034Z,1.00
2022-08-31T11:54:41.939Z,1.00
2022-08-31T11:57:11.103Z,1.00
2022-08-31T11:59:40.299Z,1.00
2022-08-31T12:02:19.157Z,1.00
2022-08-31T12:04:51.140Z,1.00
2022-08-31T12:07:24.807Z,1.00
2022-08-31T12:09:52.004Z,1.00
2022-08-31T12:12:27.800Z,1.00
2022-08-31T12:15:00.768Z,1.00
2022-08-31T12:17:51.805Z,1.00
2022-08-31T12:20:26.181Z,1.00
2022-08-31T12:23:30.016Z,1.00
2022-08-31T12:26:06.835Z,1.00
2022-08-31T12:28:48.591Z,1.00
2022-08-31T12:31:16.864Z,1.00
2022-08-31T12:33:59.273Z,1.00
2022-08-31T12:36:28.195Z,1.00
2022-08-31T12:39:06.158Z,1.00
2022-08-31T12:41:33.004Z,1.00
2022-08-31T12:44:00.228Z,1.00
2022-08-31T12:46:37.816Z,1.00
2022-08-31T12:49:08.632Z,1.00
2022-08-31T12:51:45.891Z,1.00
2022-08-31T12:54:21.624Z,1.00
2022-08-31T12:56:56.127Z,1.00
2022-08-31T13:00:01.038Z,1.00
2022-08-31T13:02:30.526Z,1.00
2022-08-31T13:04:57.432Z,1.00
2022-08-31T13:07:29.539Z,1.00
2022-08-31T13:10:12.882Z,1.00
2022-08-31T13:12:40.163Z,1.00
2022-08-31T13:15:09.570Z,1.00
2022-08-31T13:17:40.913Z,1.00
2022-08-31T13:20:07.696Z,1.00
2022-08-31T13:22:39.444Z,1.00
2022-08-31T13:25:35.577Z,1.00
2022-08-31T13:28:07.281Z,1.00
2022-08-31T13:30:39.899Z,1.00
2022-08-31T13:33:24.827Z,1.00
2022-08-31T13:35:54.339Z,1.00
2022-08-31T13:38:40.058Z,1.00
2022-08-31T13:41:16.594Z,1.00
2022-08-31T13:43:47.141Z,1.00
2022-08-31T13:46:13.775Z,1.00
2022-08-31T13:48:40.632Z,1.00
2022-08-31T13:51:17.038Z,1.00
2022-08-31T13:53:45.941Z,1.00
2022-08-31T13:56:46.585Z,1.00
2022-08-31T13:59:25.015Z,1.00
2022-08-31T14:01:54.915Z,1.00
2022-08-31T14:04:49.463Z,1.00
2022-08-31T14:07:23.446Z,1.00
2022-08-31T14:10:00.891Z,1.00
2022-08-31T14:12:35.331Z,1.00
2022-08-31T14:15:06.024Z,1.00
2022-08-31T14:17:32.704Z,1.00
2022-08-31T14:20:19.333Z,1.00
2022-08-31T14:22:49.909Z,1.00
2022-08-31T14:25:19.834Z,3.10
2022-08-31T14:27:46.434Z,1.30
2022-08-31T14:30:14.072Z,4.70
2022-08-31T14:32:45.595Z,1.50
2022-08-31T14:35:12.605Z,2.50
2022-08-31T14:37:42.207Z,4.30
2022-08-31T14:40:09.473Z,4.40
2022-08-31T14:42:37.903Z,2.10
2022-08-31T14:45:09.381Z,1.50
2022-08-31T14:47:43.952Z,4.20
2022-08-31T14:50:12.345Z,8.20
2022-08-31T14:52:41.141Z,1.00
2022-08-31T14:55:11.129Z,1.20
2022-08-31T14:57:43.386Z,1.00
2022-08-31T15:00:15.001Z,1.00
2022-08-31T15:02:42.029Z,1.00
2022-08-31T15:05:09.367Z,1.00
2022-08-31T15:07:39.059Z,1.00
2022-08-31T15:10:07.179Z,1.00
2022-08-31T15:12:34.451Z,1.00
2022-08-31T15:15:01.008Z,1.00
2022-08-31T15:17:28.773Z,1.00
2022-08-31T15:19:55.795Z,1.00
2022-08-31T15:22:23.096Z,1.00
2022-08-31T15:24:50.288Z,1.00
2022-08-31T15:27:17.371Z,1.00
2022-08-31T15:29:45.454Z,1.00
2022-08-31T15:32:16.457Z,1.00
2022-08-31T15:34:49.996Z,1.00
2022-08-31T15:37:16.740Z,1.00
2022-08-31T15:39:48.821Z,1.00
2022-08-31T15:42:20.359Z,1.00
2022-08-31T15:44:57.186Z,2.90
2022-08-31T15:47:44.195Z,1.00
2022-08-31T15:50:10.943Z,1.00
2022-08-31T15:52:42.189Z,1.00
2022-08-31T15:55:08.941Z,1.00
2022-08-31T15:57:36.840Z,1.00
2022-08-31T16:00:04.229Z,1.00
2022-08-31T16:02:36.060Z,1.00
2022-08-31T16:05:03.377Z,1.00
2022-08-31T16:07:30.082Z,1.00
2022-08-31T16:09:56.753Z,1.00
2022-08-31T16:12:23.412Z,1.00
2022-08-31T16:14:51.798Z,1.00
2022-08-31T16:17:20.112Z,1.00
2022-08-31T16:19:47.960Z,1.00
2022-08-31T16:22:14.839Z,1.00
2022-08-31T16:24:42.015Z,1.00
2022-08-31T16:27:12.009Z,1.00
2022-08-31T16:29:39.117Z,1.00
2022-08-31T16:32:06.888Z,1.00
2022-08-31T16:34:34.781Z,1.00
2022-08-31T16:37:07.354Z,1.00
2022-08-31T16:39:36.176Z,1.00
2022-08-31T16:42:06.453Z,1.00
2022-08-31T16:44:36.564Z,1.00
2022-08-31T16:47:04.215Z,1.00
2022-08-31T16:49:33.787Z,1.00
2022-08-31T16:52:00.924Z,1.00
2022-08-31T16:54:28.688Z,1.00
2022-08-31T16:56:57.830Z,1.00
2022-08-31T16:59:26.176Z,1.00
2022-08-31T17:01:52.961Z,1.00
2022-08-31T17:04:40.994Z,1.00
2022-08-31T17:07:10.752Z,1.00
2022-08-31T17:09:38.279Z,1.00
2022-08-31T17:12:07.712Z,1.40
2022-08-31T17:14:36.037Z,1.00
2022-08-31T17:17:05.745Z,1.00
2022-08-31T17:19:33.745Z,2.00
2022-08-31T17:22:03.318Z,2.80
2022-08-31T17:24:32.126Z,1.90
2022-08-31T17:27:02.304Z,2.60
2022-08-31T17:29:32.152Z,3.70
2022-08-31T17:32:02.354Z,5.20
2022-08-31T17:34:30.334Z,6.90
2022-08-31T17:36:57.881Z,8.40
2022-08-31T17:39:24.668Z,8.30
2022-08-31T17:41:51.660Z,10.60
2022-08-31T17:44:19.720Z,10.80
2022-08-31T17:46:47.455Z,11.50
2022-08-31T17:49:15.309Z,13.00
2022-08-31T17:51:43.314Z,12.90
2022-08-31T17:54:12.304Z,14.90
2022-08-31T17:56:47.747Z,14.60
2022-08-31T17:59:25.071Z,15.00
2022-08-31T18:01:53.731Z,16.20
2022-08-31T18:04:21.159Z,17.40
2022-08-31T18:06:51.640Z,17.50
2022-08-31T18:09:19.327Z,17.40
2022-08-31T18:11:46.384Z,18.40
2022-08-31T18:14:13.751Z,19.50
2022-08-31T18:16:41.162Z,20.40
2022-08-31T18:19:08.382Z,19.40
2022-08-31T18:21:35.192Z,20.90
2022-08-31T18:24:01.854Z,20.80
2022-08-31T18:26:29.812Z,22.00
2022-08-31T18:28:57.106Z,22.10
2022-08-31T18:31:30.646Z,23.00
2022-08-31T18:34:01.341Z,23.50
2022-08-31T18:36:28.576Z,23.70
2022-08-31T18:38:56.405Z,24.70
2022-08-31T18:41:42.916Z,26.40
2022-08-31T18:44:28.226Z,26.40
2022-08-31T18:46:57.633Z,26.40
2022-08-31T18:49:24.641Z,26.40
2022-08-31T18:51:52.204Z,26.30
2022-08-31T18:54:19.875Z,26.70
2022-08-31T18:56:47.171Z,27.90
2022-08-31T18:59:14.273Z,28.30
2022-08-31T19:01:42.955Z,28.80
2022-08-31T19:04:10.431Z,29.20
2022-08-31T19:06:39.145Z,29.60
2022-08-31T19:09:07.665Z,30.70
2022-08-31T19:11:38.331Z,31.50
2022-08-31T19:14:05.095Z,32.00
2022-08-31T19:16:31.852Z,32.70
2022-08-31T19:18:58.914Z,34.40
2022-08-31T19:21:30.251Z,34.20
2022-08-31T19:24:00.164Z,34.40
2022-08-31T19:26:30.134Z,34.10
2022-08-31T19:28:57.732Z,34.80
2022-08-31T19:31:26.880Z,34.00
2022-08-31T19:33:57.482Z,34.80
2022-08-31T19:36:24.617Z,35.90
2022-08-31T19:38:51.785Z,36.20
2022-08-31T19:41:24.572Z,36.20
2022-08-31T19:44:01.914Z,36.20
2022-08-31T19:46:32.964Z,36.20
2022-08-31T19:49:00.277Z,36.20
2022-08-31T19:51:29.075Z,38.90
2022-08-31T19:53:56.149Z,39.40
2022-08-31T19:56:24.116Z,40.00
2022-08-31T19:58:52.672Z,37.90
2022-08-31T20:01:25.355Z,37.50
2022-08-31T20:03:52.700Z,40.00
2022-08-31T20:06:20.420Z,41.50
2022-08-31T20:08:47.741Z,41.20
2022-08-31T20:11:20.703Z,40.50
2022-08-31T20:13:48.773Z,41.80
2022-08-31T20:16:15.538Z,40.30
2022-08-31T20:18:46.966Z,40.90
2022-08-31T20:21:17.250Z,41.80
2022-08-31T20:23:45.058Z,42.30
2022-08-31T20:26:12.235Z,41.80
2022-08-31T20:28:39.482Z,41.80
2022-08-31T20:31:10.607Z,42.10
2022-08-31T20:33:37.736Z,41.70
2022-08-31T20:36:19.087Z,43.70
2022-08-31T20:38:46.686Z,42.40
2022-08-31T20:41:14.180Z,42.60
2022-08-31T20:43:41.296Z,42.50
2022-08-31T20:46:30.661Z,42.50
2022-08-31T20:49:16.060Z,41.80
2022-08-31T20:51:43.051Z,42.20
2022-08-31T20:54:09.654Z,43.10
2022-08-31T20:56:36.232Z,43.20
2022-08-31T20:59:10.037Z,42.50
2022-08-31T21:01:37.600Z,42.90
2022-08-31T21:04:05.118Z,43.80
2022-08-31T21:06:34.533Z,43.80
2022-08-31T21:09:02.768Z,43.60
2022-08-31T21:11:29.412Z,43.00
2022-08-31T21:13:55.900Z,42.80
2022-08-31T21:16:22.536Z,42.60
2022-08-31T21:18:49.949Z,43.00
2022-08-31T21:21:17.362Z,43.50
2022-08-31T21:23:47.475Z,43.40
2022-08-31T21:26:19.995Z,42.20
2022-08-31T21:28:47.279Z,41.80
2022-08-31T21:31:15.802Z,42.20
2022-08-31T21:33:45.865Z,42.50
2022-08-31T21:36:15.010Z,43.50
2022-08-31T21:38:41.974Z,42.70
2022-08-31T21:41:09.373Z,42.90
2022-08-31T21:43:36.342Z,41.50
2022-08-31T21:46:07.992Z,41.80
2022-08-31T21:48:35.897Z,41.50
2022-08-31T21:51:11.521Z,41.40
2022-08-31T21:53:38.563Z,42.90
2022-08-31T21:56:05.466Z,43.40
2022-08-31T21:58:32.511Z,42.90
2022-08-31T22:00:59.363Z,41.50
2022-08-31T22:03:35.441Z,41.50
2022-08-31T22:06:07.074Z,42.20
2022-08-31T22:08:34.585Z,41.50
2022-08-31T22:11:01.361Z,39.70
2022-08-31T22:13:28.085Z,40.80
2022-08-31T22:15:57.048Z,40.40
2022-08-31T22:18:59.782Z,41.40
2022-08-31T22:21:39.459Z,40.40
2022-08-31T22:24:07.382Z,41.40
2022-08-31T22:26:38.754Z,42.40
2022-08-31T22:29:07.202Z,43.40
2022-08-31T22:31:37.379Z,41.40
2022-08-31T22:34:05.239Z,44.00
2022-08-31T22:36:32.445Z,42.60
2022-08-31T22:39:00.893Z,42.50
2022-08-31T22:41:27.443Z,43.20
2022-08-31T22:43:53.982Z,45.40
2022-08-31T22:46:20.679Z,44.80
2022-08-31T22:48:47.609Z,44.00
2022-08-31T22:51:14.880Z,44.40
2022-08-31T22:53:43.064Z,43.60
2022-08-31T22:56:13.859Z,44.20
2022-08-31T22:58:40.865Z,45.30
2022-08-31T23:01:20.691Z,46.30
2022-08-31T23:03:51.036Z,46.60
2022-08-31T23:06:20.137Z,46.60
2022-08-31T23:08:47.654Z,46.50
2022-08-31T23:11:15.452Z,46.50
2022-08-31T23:13:57.495Z,46.50
2022-08-31T23:16:26.582Z,46.50
2022-08-31T23:18:57.644Z,46.60
2022-08-31T23:21:27.756Z,46.50
2022-08-31T23:23:55.299Z,46.50
2022-08-31T23:26:23.722Z,46.50
2022-08-31T23:28:52.596Z,46.40
2022-08-31T23:31:22.229Z,46.40
2022-08-31T23:33:51.104Z,46.50
2022-08-31T23:36:17.991Z,48.20
2022-08-31T23:38:49.547Z,47.70
2022-08-31T23:41:18.362Z,48.90
2022-08-31T23:43:48.268Z,47.70
2022-08-31T23:46:14.919Z,48.00
2022-08-31T23:48:41.698Z,49.40
2022-08-31T23:51:09.147Z,50.70
2022-08-31T23:53:36.551Z,50.40
2022-08-31T23:56:11.496Z,49.80
2022-08-31T23:58:39.245Z,50.50
